sensor_id;sensor_type;location;lat;lon;timestamp;pressure;altitude;pressure_sealevel;temperature;humidity
74708;BME280;63360;50.104;8.074;2022-12-07T00:01:41;97248.25;;;1.16;100.00
74708;BME280;63360;50.104;8.074;2022-12-07T00:04:11;97246.69;;;1.15;100.00
74708;BME280;63360;50.104;8.074;2022-12-07T00:06:40;97245.75;;;1.21;100.00
74708;BME280;63360;50.104;8.074;2022-12-07T00:09:10;97240.91;;;1.25;100.00
74708;BME280;63360;50.104;8.074;2022-12-07T00:11:37;97224.50;;;1.26;100.00
74708;BME280;63360;50.104;8.074;2022-12-07T00:14:08;97234.28;;;1.29;100.00
74708;BME280;63360;50.104;8.074;2022-12-07T00:16:36;97219.78;;;1.12;100.00
74708;BME280;63360;50.104;8.074;2022-12-07T00:19:03;97220.06;;;1.16;100.00
74708;BME280;63360;50.104;8.074;2022-12-07T00:21:32;97215.19;;;1.14;100.00
74708;BME280;63360;50.104;8.074;2022-12-07T00:24:00;97199.28;;;1.12;100.00
74708;BME280;63360;50.104;8.074;2022-12-07T00:26:31;97211.88;;;1.14;100.00
74708;BME280;63360;50.104;8.074;2022-12-07T00:29:00;97208.53;;;1.13;100.00
74708;BME280;63360;50.104;8.074;2022-12-07T00:31:30;97219.16;;;1.27;100.00
74708;BME280;63360;50.104;8.074;2022-12-07T00:33:57;97215.00;;;1.21;100.00
74708;BME280;63360;50.104;8.074;2022-12-07T00:36:24;97204.22;;;1.19;100.00
74708;BME280;63360;50.104;8.074;2022-12-07T00:38:54;97206.38;;;1.32;100.00
74708;BME280;63360;50.104;8.074;2022-12-07T00:41:23;97192.50;;;1.28;100.00
74708;BME280;63360;50.104;8.074;2022-12-07T00:43:51;97198.03;;;1.15;100.00
74708;BME280;63360;50.104;8.074;2022-12-07T00:46:19;97203.44;;;1.18;100.00
74708;BME280;63360;50.104;8.074;2022-12-07T00:48:46;97206.00;;;1.18;100.00
74708;BME280;63360;50.104;8.074;2022-12-07T00:51:15;97202.19;;;1.21;100.00
74708;BME280;63360;50.104;8.074;2022-12-07T00:53:42;97192.38;;;1.13;100.00
74708;BME280;63360;50.104;8.074;2022-12-07T00:56:13;97199.59;;;1.16;100.00
74708;BME280;63360;50.104;8.074;2022-12-07T00:58:39;97188.84;;;1.19;100.00
74708;BME280;63360;50.104;8.074;2022-12-07T01:01:07;97194.47;;;1.16;100.00
74708;BME280;63360;50.104;8.074;2022-12-07T01:03:35;97190.56;;;1.08;100.00
74708;BME280;63360;50.104;8.074;2022-12-07T01:06:02;97189.03;;;1.12;100.00
74708;BME280;63360;50.104;8.074;2022-12-07T01:08:29;97186.44;;;1.07;100.00
74708;BME280;63360;50.104;8.074;2022-12-07T01:11:03;97178.75;;;1.07;100.00
74708;BME280;63360;50.104;8.074;2022-12-07T01:13:31;97170.59;;;1.10;100.00
74708;BME280;63360;50.104;8.074;2022-12-07T01:16:00;97187.78;;;1.15;100.00
74708;BME280;63360;50.104;8.074;2022-12-07T01:18:28;97180.38;;;1.18;100.00
74708;BME280;63360;50.104;8.074;2022-12-07T01:21:14;97184.09;;;1.33;100.00
74708;BME280;63360;50.104;8.074;2022-12-07T01:23:41;97180.09;;;1.15;100.00
74708;BME280;63360;50.104;8.074;2022-12-07T01:26:10;97184.06;;;1.28;100.00
74708;BME280;63360;50.104;8.074;2022-12-07T01:28:37;97194.03;;;1.24;100.00
74708;BME280;63360;50.104;8.074;2022-12-07T01:31:09;97186.28;;;1.19;100.00
74708;BME280;63360;50.104;8.074;2022-12-07T01:33:38;97197.59;;;1.23;100.00
74708;BME280;63360;50.104;8.074;2022-12-07T01:36:24;97189.81;;;1.13;100.00
74708;BME280;63360;50.104;8.074;2022-12-07T01:38:55;97197.50;;;1.13;100.00
74708;BME280;63360;50.104;8.074;2022-12-07T01:41:25;97175.09;;;0.98;100.00
74708;BME280;63360;50.104;8.074;2022-12-07T01:44:20;97195.91;;;1.07;100.00
74708;BME280;63360;50.104;8.074;2022-12-07T01:46:51;97194.28;;;0.96;100.00
74708;BME280;63360;50.104;8.074;2022-12-07T01:49:23;97195.78;;;0.92;100.00
74708;BME280;63360;50.104;8.074;2022-12-07T01:52:03;97179.16;;;0.94;100.00
74708;BME280;63360;50.104;8.074;2022-12-07T01:54:34;97180.47;;;0.97;100.00
74708;BME280;63360;50.104;8.074;2022-12-07T01:57:02;97176.56;;;0.89;100.00
74708;BME280;63360;50.104;8.074;2022-12-07T01:59:29;97177.81;;;0.87;100.00
74708;BME280;63360;50.104;8.074;2022-12-07T02:01:56;97175.03;;;0.93;100.00
74708;BME280;63360;50.104;8.074;2022-12-07T02:04:23;97165.53;;;0.89;100.00
74708;BME280;63360;50.104;8.074;2022-12-07T02:06:50;97168.09;;;0.89;100.00
74708;BME280;63360;50.104;8.074;2022-12-07T02:09:18;97167.31;;;0.88;100.00
74708;BME280;63360;50.104;8.074;2022-12-07T02:11:45;97167.34;;;0.93;100.00
74708;BME280;63360;50.104;8.074;2022-12-07T02:14:11;97168.38;;;0.92;100.00
74708;BME280;63360;50.104;8.074;2022-12-07T02:16:51;97165.53;;;0.89;100.00
74708;BME280;63360;50.104;8.074;2022-12-07T02:24:49;97161.00;;;0.96;100.00
74708;BME280;63360;50.104;8.074;2022-12-07T02:32:53;97158.56;;;1.11;100.00
74708;BME280;63360;50.104;8.074;2022-12-07T02:40:57;97154.47;;;1.15;100.00
74708;BME280;63360;50.104;8.074;2022-12-07T02:43:34;97155.75;;;1.12;100.00
74708;BME280;63360;50.104;8.074;2022-12-07T02:46:08;97163.47;;;1.17;100.00
74708;BME280;63360;50.104;8.074;2022-12-07T02:48:38;97146.53;;;1.11;100.00
74708;BME280;63360;50.104;8.074;2022-12-07T02:51:05;97151.66;;;1.11;100.00
74708;BME280;63360;50.104;8.074;2022-12-07T02:53:37;97142.91;;;1.07;100.00
74708;BME280;63360;50.104;8.074;2022-12-07T03:06:53;97142.41;;;1.10;100.00
74708;BME280;63360;50.104;8.074;2022-12-07T03:09:32;97141.94;;;1.13;100.00
74708;BME280;63360;50.104;8.074;2022-12-07T03:12:16;97143.19;;;1.11;100.00
74708;BME280;63360;50.104;8.074;2022-12-07T03:14:49;97150.22;;;1.26;100.00
74708;BME280;63360;50.104;8.074;2022-12-07T03:17:23;97142.56;;;1.31;100.00
74708;BME280;63360;50.104;8.074;2022-12-07T03:19:52;97143.56;;;1.25;100.00
74708;BME280;63360;50.104;8.074;2022-12-07T03:22:21;97145.34;;;1.24;100.00
74708;BME280;63360;50.104;8.074;2022-12-07T03:24:52;97137.13;;;1.22;100.00
74708;BME280;63360;50.104;8.074;2022-12-07T03:27:23;97127.41;;;1.24;100.00
74708;BME280;63360;50.104;8.074;2022-12-07T03:30:00;97139.00;;;1.37;100.00
74708;BME280;63360;50.104;8.074;2022-12-07T03:32:38;97127.75;;;1.38;100.00
74708;BME280;63360;50.104;8.074;2022-12-07T03:35:17;97129.38;;;1.49;100.00
74708;BME280;63360;50.104;8.074;2022-12-07T03:37:55;97129.88;;;1.51;100.00
74708;BME280;63360;50.104;8.074;2022-12-07T03:40:50;97123.91;;;1.35;100.00
74708;BME280;63360;50.104;8.074;2022-12-07T03:43:19;97124.91;;;1.34;100.00
74708;BME280;63360;50.104;8.074;2022-12-07T03:46:19;97131.66;;;1.45;100.00
74708;BME280;63360;50.104;8.074;2022-12-07T03:51:51;97136.28;;;1.48;100.00
74708;BME280;63360;50.104;8.074;2022-12-07T03:54:29;97120.63;;;1.45;100.00
74708;BME280;63360;50.104;8.074;2022-12-07T03:56:58;97119.28;;;1.37;100.00
74708;BME280;63360;50.104;8.074;2022-12-07T03:59:25;97129.38;;;1.49;100.00
74708;BME280;63360;50.104;8.074;2022-12-07T04:01:59;97119.31;;;1.42;100.00
74708;BME280;63360;50.104;8.074;2022-12-07T04:04:28;97111.13;;;1.40;100.00
74708;BME280;63360;50.104;8.074;2022-12-07T04:06:54;97113.97;;;1.44;100.00
74708;BME280;63360;50.104;8.074;2022-12-07T04:09:21;97111.66;;;1.47;100.00
74708;BME280;63360;50.104;8.074;2022-12-07T04:11:48;97127.03;;;1.47;100.00
74708;BME280;63360;50.104;8.074;2022-12-07T04:14:14;97110.06;;;1.41;100.00
74708;BME280;63360;50.104;8.074;2022-12-07T04:16:49;97117.06;;;1.51;100.00
74708;BME280;63360;50.104;8.074;2022-12-07T04:19:17;97119.13;;;1.49;100.00
74708;BME280;63360;50.104;8.074;2022-12-07T04:21:44;97124.28;;;1.59;100.00
74708;BME280;63360;50.104;8.074;2022-12-07T04:24:12;97135.09;;;1.66;100.00
74708;BME280;63360;50.104;8.074;2022-12-07T04:26:40;97115.53;;;1.55;100.00
74708;BME280;63360;50.104;8.074;2022-12-07T04:29:07;97128.13;;;1.56;100.00
74708;BME280;63360;50.104;8.074;2022-12-07T04:31:35;97128.34;;;1.55;100.00
74708;BME280;63360;50.104;8.074;2022-12-07T04:34:01;97114.47;;;1.46;100.00
74708;BME280;63360;50.104;8.074;2022-12-07T04:36:28;97109.59;;;1.44;100.00
74708;BME280;63360;50.104;8.074;2022-12-07T04:38:54;97109.34;;;1.46;100.00
74708;BME280;63360;50.104;8.074;2022-12-07T04:41:22;97110.38;;;1.45;100.00
74708;BME280;63360;50.104;8.074;2022-12-07T04:43:57;97124.28;;;1.59;100.00
74708;BME280;63360;50.104;8.074;2022-12-07T04:46:25;97116.13;;;1.67;100.00
74708;BME280;63360;50.104;8.074;2022-12-07T04:48:52;97120.75;;;1.65;100.00
74708;BME280;63360;50.104;8.074;2022-12-07T04:51:24;97118.13;;;1.60;100.00
74708;BME280;63360;50.104;8.074;2022-12-07T04:53:51;97114.56;;;1.61;100.00
74708;BME280;63360;50.104;8.074;2022-12-07T04:56:18;97115.56;;;1.60;100.00
74708;BME280;63360;50.104;8.074;2022-12-07T04:58:47;97123.25;;;1.60;100.00
74708;BME280;63360;50.104;8.074;2022-12-07T05:01:14;97119.47;;;1.67;100.00
74708;BME280;63360;50.104;8.074;2022-12-07T05:03:42;97123.06;;;1.71;100.00
74708;BME280;63360;50.104;8.074;2022-12-07T05:06:10;97105.41;;;1.75;100.00
74708;BME280;63360;50.104;8.074;2022-12-07T05:08:39;97106.44;;;1.79;100.00
74708;BME280;63360;50.104;8.074;2022-12-07T05:11:06;97107.00;;;1.86;100.00
74708;BME280;63360;50.104;8.074;2022-12-07T05:13:33;97117.53;;;1.95;100.00
74708;BME280;63360;50.104;8.074;2022-12-07T05:16:00;97109.75;;;1.74;100.00
74708;BME280;63360;50.104;8.074;2022-12-07T05:18:26;97120.03;;;1.74;100.00
74708;BME280;63360;50.104;8.074;2022-12-07T05:20:53;97114.13;;;1.74;100.00
74708;BME280;63360;50.104;8.074;2022-12-07T05:23:19;97106.38;;;1.64;100.00
74708;BME280;63360;50.104;8.074;2022-12-07T05:25:46;97124.09;;;1.70;100.00
74708;BME280;63360;50.104;8.074;2022-12-07T05:28:12;97117.66;;;1.68;100.00
74708;BME280;63360;50.104;8.074;2022-12-07T05:30:39;97110.22;;;1.61;100.00
74708;BME280;63360;50.104;8.074;2022-12-07T05:33:05;97121.78;;;1.69;100.00
74708;BME280;63360;50.104;8.074;2022-12-07T05:35:32;97121.81;;;1.79;100.00
74708;BME280;63360;50.104;8.074;2022-12-07T05:37:58;97126.19;;;1.78;100.00
74708;BME280;63360;50.104;8.074;2022-12-07T05:40:24;97111.53;;;1.69;100.00
74708;BME280;63360;50.104;8.074;2022-12-07T05:42:51;97118.22;;;1.75;100.00
74708;BME280;63360;50.104;8.074;2022-12-07T05:45:17;97113.91;;;1.80;100.00
74708;BME280;63360;50.104;8.074;2022-12-07T05:47:44;97114.88;;;1.74;100.00
74708;BME280;63360;50.104;8.074;2022-12-07T05:50:10;97104.66;;;1.79;100.00
74708;BME280;63360;50.104;8.074;2022-12-07T05:52:36;97121.63;;;1.91;100.00
74708;BME280;63360;50.104;8.074;2022-12-07T05:55:03;97124.47;;;1.94;100.00
74708;BME280;63360;50.104;8.074;2022-12-07T05:57:30;97113.09;;;1.75;100.00
74708;BME280;63360;50.104;8.074;2022-12-07T05:59:56;97121.34;;;1.82;100.00
74708;BME280;63360;50.104;8.074;2022-12-07T06:02:22;97119.56;;;1.88;100.00
74708;BME280;63360;50.104;8.074;2022-12-07T06:04:49;97118.53;;;1.83;100.00
74708;BME280;63360;50.104;8.074;2022-12-07T06:07:16;97107.47;;;1.73;100.00
74708;BME280;63360;50.104;8.074;2022-12-07T06:09:42;97124.84;;;1.71;100.00
74708;BME280;63360;50.104;8.074;2022-12-07T06:12:11;97116.63;;;1.64;100.00
74708;BME280;63360;50.104;8.074;2022-12-07T06:14:56;97108.66;;;1.60;100.00
74708;BME280;63360;50.104;8.074;2022-12-07T06:17:23;97116.13;;;1.67;100.00
74708;BME280;63360;50.104;8.074;2022-12-07T06:19:50;97113.78;;;1.60;100.00
74708;BME280;63360;50.104;8.074;2022-12-07T06:22:17;97111.72;;;1.62;100.00
74708;BME280;63360;50.104;8.074;2022-12-07T06:24:43;97108.22;;;1.73;100.00
74708;BME280;63360;50.104;8.074;2022-12-07T06:27:10;97108.16;;;1.63;100.00
74708;BME280;63360;50.104;8.074;2022-12-07T06:29:36;97114.59;;;1.66;100.00
74708;BME280;63360;50.104;8.074;2022-12-07T06:32:03;97119.75;;;1.76;100.00
74708;BME280;63360;50.104;8.074;2022-12-07T06:34:31;97104.31;;;1.61;100.00
74708;BME280;63360;50.104;8.074;2022-12-07T06:36:57;97111.84;;;1.77;100.00
74708;BME280;63360;50.104;8.074;2022-12-07T06:39:25;97108.53;;;1.87;100.00
74708;BME280;63360;50.104;8.074;2022-12-07T06:41:52;97113.63;;;1.82;100.00
74708;BME280;63360;50.104;8.074;2022-12-07T06:44:20;97104.91;;;1.73;100.00
74708;BME280;63360;50.104;8.074;2022-12-07T06:46:48;97109.81;;;1.90;100.00
74708;BME280;63360;50.104;8.074;2022-12-07T06:49:15;97110.63;;;1.95;100.00
74708;BME280;63360;50.104;8.074;2022-12-07T06:51:42;97114.16;;;1.84;100.00
74708;BME280;63360;50.104;8.074;2022-12-07T06:54:10;97112.38;;;1.84;100.00
74708;BME280;63360;50.104;8.074;2022-12-07T06:56:38;97117.47;;;1.79;100.00
74708;BME280;63360;50.104;8.074;2022-12-07T06:59:06;97118.53;;;1.83;100.00
74708;BME280;63360;50.104;8.074;2022-12-07T07:01:34;97114.41;;;1.77;100.00
74708;BME280;63360;50.104;8.074;2022-12-07T07:04:01;97129.06;;;1.92;100.00
74708;BME280;63360;50.104;8.074;2022-12-07T07:06:28;97130.31;;;1.84;100.00
74708;BME280;63360;50.104;8.074;2022-12-07T07:08:54;97124.66;;;1.82;100.00
74708;BME280;63360;50.104;8.074;2022-12-07T07:11:21;97129.84;;;1.93;100.00
74708;BME280;63360;50.104;8.074;2022-12-07T07:13:47;97131.88;;;1.86;100.00
74708;BME280;63360;50.104;8.074;2022-12-07T07:16:14;97136.75;;;1.92;100.00
74708;BME280;63360;50.104;8.074;2022-12-07T07:18:40;97131.13;;;1.95;100.00
74708;BME280;63360;50.104;8.074;2022-12-07T07:21:07;97139.13;;;2.04;100.00
74708;BME280;63360;50.104;8.074;2022-12-07T07:23:33;97137.03;;;1.91;100.00
74708;BME280;63360;50.104;8.074;2022-12-07T07:25:59;97135.97;;;1.87;100.00
74708;BME280;63360;50.104;8.074;2022-12-07T07:28:26;97138.28;;;1.83;100.00
74708;BME280;63360;50.104;8.074;2022-12-07T07:30:52;97146.50;;;1.90;100.00
74708;BME280;63360;50.104;8.074;2022-12-07T07:33:19;97138.81;;;1.95;100.00
74708;BME280;63360;50.104;8.074;2022-12-07T07:35:45;97153.19;;;1.91;100.00
74708;BME280;63360;50.104;8.074;2022-12-07T07:38:11;97141.88;;;1.87;100.00
74708;BME280;63360;50.104;8.074;2022-12-07T07:40:38;97145.97;;;1.83;100.00
74708;BME280;63360;50.104;8.074;2022-12-07T07:43:04;97133.13;;;1.83;100.00
74708;BME280;63360;50.104;8.074;2022-12-07T07:45:31;97154.22;;;1.95;100.00
74708;BME280;63360;50.104;8.074;2022-12-07T07:47:57;97152.94;;;1.98;100.00
74708;BME280;63360;50.104;8.074;2022-12-07T07:50:24;97134.47;;;1.96;100.00
74708;BME280;63360;50.104;8.074;2022-12-07T07:52:50;97155.31;;;2.04;100.00
74708;BME280;63360;50.104;8.074;2022-12-07T07:55:17;97145.75;;;1.95;100.00
74708;BME280;63360;50.104;8.074;2022-12-07T07:57:43;97147.78;;;1.93;100.00
74708;BME280;63360;50.104;8.074;2022-12-07T08:00:18;97146.03;;;1.98;100.00
74708;BME280;63360;50.104;8.074;2022-12-07T08:02:44;97144.47;;;1.97;100.00
74708;BME280;63360;50.104;8.074;2022-12-07T08:05:12;97143.47;;;1.98;100.00
74708;BME280;63360;50.104;8.074;2022-12-07T08:07:39;97138.84;;;2.00;100.00
74708;BME280;63360;50.104;8.074;2022-12-07T08:10:07;97143.72;;;1.97;100.00
74708;BME280;63360;50.104;8.074;2022-12-07T08:12:36;97150.16;;;2.04;100.00
74708;BME280;63360;50.104;8.074;2022-12-07T08:15:04;97144.75;;;2.01;100.00
74708;BME280;63360;50.104;8.074;2022-12-07T08:17:30;97156.31;;;2.08;100.00
74708;BME280;63360;50.104;8.074;2022-12-07T08:19:57;97151.50;;;2.22;100.00
74708;BME280;63360;50.104;8.074;2022-12-07T08:22:23;97157.91;;;2.14;100.00
74708;BME280;63360;50.104;8.074;2022-12-07T08:24:49;97154.06;;;2.22;100.00
74708;BME280;63360;50.104;8.074;2022-12-07T08:27:16;97152.81;;;2.24;100.00
74708;BME280;63360;50.104;8.074;2022-12-07T08:29:42;97143.03;;;2.21;100.00
74708;BME280;63360;50.104;8.074;2022-12-07T08:32:08;97157.69;;;2.26;100.00
74708;BME280;63360;50.104;8.074;2022-12-07T08:34:35;97146.84;;;2.14;100.00
74708;BME280;63360;50.104;8.074;2022-12-07T08:37:03;97153.28;;;2.21;100.00
74708;BME280;63360;50.104;8.074;2022-12-07T08:39:29;97163.06;;;2.24;100.00
74708;BME280;63360;50.104;8.074;2022-12-07T08:41:57;97169.97;;;2.19;100.00
74708;BME280;63360;50.104;8.074;2022-12-07T08:44:24;97162.03;;;2.15;100.00
74708;BME280;63360;50.104;8.074;2022-12-07T08:46:54;97172.81;;;2.22;100.00
74708;BME280;63360;50.104;8.074;2022-12-07T08:49:28;97182.06;;;2.23;100.00
74708;BME280;63360;50.104;8.074;2022-12-07T08:51:57;97170.75;;;2.19;100.00
74708;BME280;63360;50.104;8.074;2022-12-07T08:54:24;97173.09;;;2.26;100.00
74708;BME280;63360;50.104;8.074;2022-12-07T08:56:50;97158.22;;;2.28;100.00
74708;BME280;63360;50.104;8.074;2022-12-07T08:59:24;97160.50;;;2.29;100.00
74708;BME280;63360;50.104;8.074;2022-12-07T09:01:51;97165.16;;;2.37;100.00
74708;BME280;63360;50.104;8.074;2022-12-07T09:04:18;97151.81;;;2.30;100.00
74708;BME280;63360;50.104;8.074;2022-12-07T09:06:44;97165.66;;;2.29;100.00
74708;BME280;63360;50.104;8.074;2022-12-07T09:09:11;97166.94;;;2.37;100.00
74708;BME280;63360;50.104;8.074;2022-12-07T09:11:39;97164.16;;;2.38;100.00
74708;BME280;63360;50.104;8.074;2022-12-07T09:14:06;97170.56;;;2.36;100.00
74708;BME280;63360;50.104;8.074;2022-12-07T09:16:32;97169.28;;;2.38;100.00
74708;BME280;63360;50.104;8.074;2022-12-07T09:18:59;97166.22;;;2.47;100.00
74708;BME280;63360;50.104;8.074;2022-12-07T09:21:25;97174.75;;;2.62;100.00
74708;BME280;63360;50.104;8.074;2022-12-07T09:23:52;97179.56;;;2.49;100.00
74708;BME280;63360;50.104;8.074;2022-12-07T09:26:18;97164.66;;;2.45;100.00
74708;BME280;63360;50.104;8.074;2022-12-07T09:28:44;97179.34;;;2.50;100.00
74708;BME280;63360;50.104;8.074;2022-12-07T09:31:11;97171.59;;;2.40;100.00
74708;BME280;63360;50.104;8.074;2022-12-07T09:33:59;97177.25;;;2.42;100.00
74708;BME280;63360;50.104;8.074;2022-12-07T09:36:27;97179.34;;;2.55;100.00
74708;BME280;63360;50.104;8.074;2022-12-07T09:38:54;97186.56;;;2.58;100.00
74708;BME280;63360;50.104;8.074;2022-12-07T09:41:22;97181.91;;;2.50;100.00
74708;BME280;63360;50.104;8.074;2022-12-07T09:43:50;97183.19;;;2.53;100.00
74708;BME280;63360;50.104;8.074;2022-12-07T09:46:18;97181.13;;;2.55;100.00
74708;BME280;63360;50.104;8.074;2022-12-07T09:48:46;97186.31;;;2.65;100.00
74708;BME280;63360;50.104;8.074;2022-12-07T09:51:19;97171.66;;;2.55;100.00
74708;BME280;63360;50.104;8.074;2022-12-07T09:53:51;97170.88;;;2.65;100.00
74708;BME280;63360;50.104;8.074;2022-12-07T09:56:19;97172.44;;;2.66;100.00
74708;BME280;63360;50.104;8.074;2022-12-07T09:58:47;97166.25;;;2.57;100.00
74708;BME280;63360;50.104;8.074;2022-12-07T10:01:14;97177.09;;;2.74;100.00
74708;BME280;63360;50.104;8.074;2022-12-07T10:03:50;97169.91;;;2.76;100.00
74708;BME280;63360;50.104;8.074;2022-12-07T10:06:18;97157.56;;;2.83;100.00
74708;BME280;63360;50.104;8.074;2022-12-07T10:08:44;97158.84;;;2.80;100.00
74708;BME280;63360;50.104;8.074;2022-12-07T10:11:11;97139.31;;;2.74;100.00
74708;BME280;63360;50.104;8.074;2022-12-07T10:13:41;97147.78;;;2.80;100.00
74708;BME280;63360;50.104;8.074;2022-12-07T10:16:32;97152.19;;;2.84;100.00
74708;BME280;63360;50.104;8.074;2022-12-07T10:22:04;97138.06;;;2.92;100.00
74708;BME280;63360;50.104;8.074;2022-12-07T10:24:32;97149.13;;;3.02;100.00
74708;BME280;63360;50.104;8.074;2022-12-07T10:26:58;97140.13;;;3.10;100.00
74708;BME280;63360;50.104;8.074;2022-12-07T10:29:34;97142.69;;;3.20;100.00
74708;BME280;63360;50.104;8.074;2022-12-07T10:32:05;97137.53;;;3.25;100.00
74708;BME280;63360;50.104;8.074;2022-12-07T10:34:37;97141.66;;;3.31;100.00
74708;BME280;63360;50.104;8.074;2022-12-07T10:39:46;97133.69;;;3.23;100.00
74708;BME280;63360;50.104;8.074;2022-12-07T10:42:19;97135.75;;;3.26;100.00
74708;BME280;63360;50.104;8.074;2022-12-07T10:44:47;97114.69;;;3.09;100.00
74708;BME280;63360;50.104;8.074;2022-12-07T10:47:18;97127.53;;;3.24;100.00
74708;BME280;63360;50.104;8.074;2022-12-07T11:01:21;97121.88;;;3.17;100.00
74708;BME280;63360;50.104;8.074;2022-12-07T11:09:11;97114.44;;;2.95;100.00
74708;BME280;63360;50.104;8.074;2022-12-07T11:12:26;97116.22;;;2.99;100.00
74708;BME280;63360;50.104;8.074;2022-12-07T11:25:23;97113.63;;;3.20;100.00
74708;BME280;63360;50.104;8.074;2022-12-07T11:30:42;97099.25;;;3.24;100.00
74708;BME280;63360;50.104;8.074;2022-12-07T11:33:36;97107.97;;;3.23;100.00
74708;BME280;63360;50.104;8.074;2022-12-07T11:36:27;97108.75;;;3.18;100.00
74708;BME280;63360;50.104;8.074;2022-12-07T11:39:01;97107.47;;;3.21;100.00
74708;BME280;63360;50.104;8.074;2022-12-07T11:41:49;97097.44;;;3.14;100.00
74708;BME280;63360;50.104;8.074;2022-12-07T11:47:25;97096.19;;;3.17;100.00
74708;BME280;63360;50.104;8.074;2022-12-07T11:49:58;97095.41;;;3.21;100.00
74708;BME280;63360;50.104;8.074;2022-12-07T11:52:48;97091.53;;;3.34;100.00
74708;BME280;63360;50.104;8.074;2022-12-07T12:06:37;97071.25;;;3.27;100.00
74708;BME280;63360;50.104;8.074;2022-12-07T12:21:14;97049.63;;;3.28;100.00
74708;BME280;63360;50.104;8.074;2022-12-07T12:26:20;97047.34;;;3.22;100.00
74708;BME280;63360;50.104;8.074;2022-12-07T12:29:17;97053.00;;;3.19;100.00
74708;BME280;63360;50.104;8.074;2022-12-07T12:31:48;97053.00;;;3.14;100.00
74708;BME280;63360;50.104;8.074;2022-12-07T12:34:57;97046.59;;;3.11;100.00
74708;BME280;63360;50.104;8.074;2022-12-07T12:42:56;97039.91;;;3.10;100.00
74708;BME280;63360;50.104;8.074;2022-12-07T12:45:32;97041.16;;;3.18;100.00
74708;BME280;63360;50.104;8.074;2022-12-07T12:50:37;97035.50;;;3.21;100.00
74708;BME280;63360;50.104;8.074;2022-12-07T12:53:21;97019.56;;;3.24;100.00
74708;BME280;63360;50.104;8.074;2022-12-07T12:56:06;97023.44;;;3.26;100.00
74708;BME280;63360;50.104;8.074;2022-12-07T12:58:39;97023.66;;;3.25;100.00
74708;BME280;63360;50.104;8.074;2022-12-07T13:04:02;97019.81;;;3.32;100.00
74708;BME280;63360;50.104;8.074;2022-12-07T13:06:35;97014.63;;;3.42;100.00
74708;BME280;63360;50.104;8.074;2022-12-07T13:09:02;97007.69;;;3.43;100.00
74708;BME280;63360;50.104;8.074;2022-12-07T13:11:32;97006.94;;;3.42;100.00
74708;BME280;63360;50.104;8.074;2022-12-07T13:17:01;97012.28;;;3.56;100.00
74708;BME280;63360;50.104;8.074;2022-12-07T13:19:54;97004.00;;;3.69;100.00
74708;BME280;63360;50.104;8.074;2022-12-07T13:24:57;97006.03;;;3.72;100.00
74708;BME280;63360;50.104;8.074;2022-12-07T13:27:25;96995.75;;;3.72;100.00
74708;BME280;63360;50.104;8.074;2022-12-07T13:29:56;97000.31;;;3.85;100.00
74708;BME280;63360;50.104;8.074;2022-12-07T13:32:28;97005.41;;;3.95;100.00
74708;BME280;63360;50.104;8.074;2022-12-07T13:34:55;97001.25;;;3.99;100.00
74708;BME280;63360;50.104;8.074;2022-12-07T13:37:27;96999.97;;;3.97;100.00
74708;BME280;63360;50.104;8.074;2022-12-07T13:40:18;97006.72;;;3.88;100.00
74708;BME280;63360;50.104;8.074;2022-12-07T13:42:45;97014.47;;;3.83;100.00
74708;BME280;63360;50.104;8.074;2022-12-07T13:45:28;97007.81;;;3.77;100.00
74708;BME280;63360;50.104;8.074;2022-12-07T13:48:31;97010.47;;;3.61;100.00
74708;BME280;63360;50.104;8.074;2022-12-07T13:51:03;96999.66;;;3.54;100.00
74708;BME280;63360;50.104;8.074;2022-12-07T13:53:30;96998.16;;;3.43;100.00
74708;BME280;63360;50.104;8.074;2022-12-07T13:55:58;96989.19;;;3.36;100.00
74708;BME280;63360;50.104;8.074;2022-12-07T13:58:29;96994.09;;;3.32;100.00
74708;BME280;63360;50.104;8.074;2022-12-07T14:00:57;96995.63;;;3.33;100.00
74708;BME280;63360;50.104;8.074;2022-12-07T14:03:35;97010.81;;;3.30;100.00
74708;BME280;63360;50.104;8.074;2022-12-07T14:08:42;96992.38;;;3.08;100.00
74708;BME280;63360;50.104;8.074;2022-12-07T14:11:16;96997.75;;;3.01;100.00
74708;BME280;63360;50.104;8.074;2022-12-07T14:16:41;97008.81;;;2.96;100.00
74708;BME280;63360;50.104;8.074;2022-12-07T14:19:44;97016.28;;;2.98;100.00
74708;BME280;63360;50.104;8.074;2022-12-07T14:24:59;97002.19;;;2.75;100.00
74708;BME280;63360;50.104;8.074;2022-12-07T14:27:33;96994.75;;;2.74;100.00
74708;BME280;63360;50.104;8.074;2022-12-07T14:30:04;97003.75;;;2.71;100.00
74708;BME280;63360;50.104;8.074;2022-12-07T14:32:32;97007.31;;;2.65;100.00
74708;BME280;63360;50.104;8.074;2022-12-07T14:35:02;97010.13;;;2.59;100.00
74708;BME280;63360;50.104;8.074;2022-12-07T14:37:30;97012.72;;;2.59;100.00
74708;BME280;63360;50.104;8.074;2022-12-07T14:39:56;97003.47;;;2.58;100.00
74708;BME280;63360;50.104;8.074;2022-12-07T14:42:26;97007.56;;;2.49;100.00
74708;BME280;63360;50.104;8.074;2022-12-07T14:44:53;97006.28;;;2.36;100.00
74708;BME280;63360;50.104;8.074;2022-12-07T14:47:20;96985.50;;;2.22;100.00
74708;BME280;63360;50.104;8.074;2022-12-07T14:50:07;96990.13;;;2.20;100.00
74708;BME280;63360;50.104;8.074;2022-12-07T14:52:34;96986.00;;;2.14;100.00
74708;BME280;63360;50.104;8.074;2022-12-07T14:55:26;97001.16;;;2.21;100.00
74708;BME280;63360;50.104;8.074;2022-12-07T14:57:53;97001.16;;;2.21;100.00
74708;BME280;63360;50.104;8.074;2022-12-07T15:00:23;97006.28;;;2.21;100.00
74708;BME280;63360;50.104;8.074;2022-12-07T15:02:50;97001.13;;;2.11;100.00
74708;BME280;63360;50.104;8.074;2022-12-07T15:05:17;96985.47;;;2.02;100.00
74708;BME280;63360;50.104;8.074;2022-12-07T15:07:45;96997.28;;;2.08;100.00
74708;BME280;63360;50.104;8.074;2022-12-07T15:12:48;96999.56;;;2.00;100.00
74708;BME280;63360;50.104;8.074;2022-12-07T15:15:15;96988.78;;;1.98;100.00
74708;BME280;63360;50.104;8.074;2022-12-07T15:17:43;96994.97;;;2.07;100.00
74708;BME280;63360;50.104;8.074;2022-12-07T15:20:12;96993.41;;;2.01;100.00